»·PEaware :: SWA1543 KSLC-KLAS

SWA1543 :: KSLC-KLAS

FLIGHT INFORMATION

Flight Status: Arrived
Operator:
Southwest Airlines
More flights by this operator :: More flights under this callsign
Pilot: Ben F. (2808)
Aircraft: BOEING 737-800
(B738)
More flights by this aircraft type
Origin: KSLC Salt Lake City Intl
United States
Destination: KLAS McCarran Intl
United States
More flights between these airports :: More routes between these airports
Route: +ZIONZ1 EHK KSINO SITEE4
File this flight plan on PilotEdge
Remarks:
Altitude:
(Current/Filed)
32,000ft
Speed:
(Current/Filed)
453kts
Departed: 24-Nov-19 08:40 AM
Arrived: 24-Nov-19 09:35 AM
Distance/Time
Traveled:
319nm/0:54
Distance/Time
To Go:
Arrived

Flight Plot

Page will automatically refresh every two minutes.

Flight plan parsing failed; only flown route is shown


Map Options




Map Legend


Flown Route
Filed Route
Departure Airport
Arrival Airport
Navaid (VOR, NDB)
Fix

Horizontal Profiles

Position Reports

Time Latitude Longitude Heading Altitude Ground
Speed
24-Nov-19 08:11 40.789226 -111.978827 171 4235ft 0kts
24-Nov-19 08:12 40.789226 -111.978827 171 4235ft 0kts
24-Nov-19 08:13 40.789226 -111.978827 171 4235ft 0kts
24-Nov-19 08:14 40.789226 -111.978827 171 4235ft 0kts
24-Nov-19 08:15 40.789226 -111.978827 171 4235ft 0kts
24-Nov-19 08:16 40.789226 -111.978827 171 4235ft 0kts
24-Nov-19 08:17 40.789226 -111.978827 171 4235ft 0kts
24-Nov-19 08:18 40.789226 -111.978827 171 4235ft 0kts
24-Nov-19 08:19 40.789226 -111.978827 171 4235ft 0kts
24-Nov-19 08:20 40.789226 -111.978827 171 4235ft 0kts
24-Nov-19 08:21 40.789226 -111.978827 171 4235ft 0kts
24-Nov-19 08:22 40.789226 -111.978827 171 4235ft 0kts
24-Nov-19 08:23 40.789226 -111.978827 171 4235ft 0kts
24-Nov-19 08:24 40.789226 -111.978827 171 4235ft 0kts
24-Nov-19 08:25 40.789226 -111.978827 171 4235ft 0kts
24-Nov-19 08:26 40.789226 -111.978827 171 4235ft 0kts
24-Nov-19 08:27 40.789226 -111.978827 171 4235ft 0kts
24-Nov-19 08:28 40.789226 -111.978827 171 4235ft 0kts
24-Nov-19 08:29 40.789226 -111.978827 171 4235ft 0kts
24-Nov-19 08:30 40.789537 -111.978994 129 4235ft 2kts
24-Nov-19 08:31 40.789642 -111.979397 85 4235ft 0kts
24-Nov-19 08:32 40.789642 -111.979397 85 4235ft 0kts
24-Nov-19 08:33 40.789642 -111.979396 85 4235ft 0kts
24-Nov-19 08:34 40.789657 -111.979147 85 4235ft 8kts
24-Nov-19 08:35 40.791824 -111.977356 355 4235ft 28kts
24-Nov-19 08:36 40.799384 -111.978246 354 4235ft 23kts
24-Nov-19 08:37 40.806236 -111.979024 354 4235ft 22kts
24-Nov-19 08:38 40.807522 -111.978392 85 4235ft 0kts
24-Nov-19 08:39 40.805809 -111.976707 175 4235ft 51kts
24-Nov-19 08:40 40.766943 -111.972343 173 5486ft 171kts
24-Nov-19 08:41 40.711103 -111.962347 177 7061ft 245kts
24-Nov-19 08:42 40.636620 -111.959216 178 9753ft 281kts
24-Nov-19 08:43 40.551705 -111.955728 180 11616ft 345kts
24-Nov-19 08:44 40.447933 -111.951375 179 13745ft 386kts
24-Nov-19 08:45 40.338154 -111.943501 179 16372ft 404kts
24-Nov-19 08:46 40.224409 -111.945121 189 18769ft 417kts
24-Nov-19 08:47 40.107175 -111.964026 188 20968ft 431kts
24-Nov-19 08:48 39.986031 -111.981575 188 22893ft 445kts
24-Nov-19 08:49 39.860987 -111.999782 189 24607ft 458kts
24-Nov-19 08:50 39.732684 -112.018559 188 26116ft 471kts
24-Nov-19 08:51 39.601120 -112.037620 188 27457ft 482kts
24-Nov-19 08:52 39.465790 -112.057139 188 28653ft 493kts
24-Nov-19 08:53 39.329518 -112.076542 188 30191ft 493kts
24-Nov-19 08:54 39.193287 -112.095799 188 31642ft 492kts
24-Nov-19 08:55 39.065440 -112.152681 211 32349ft 487kts
24-Nov-19 08:56 38.948557 -112.238825 212 32347ft 485kts
24-Nov-19 08:57 38.831053 -112.324101 212 32345ft 484kts
24-Nov-19 08:58 38.713727 -112.409409 211 32343ft 485kts
24-Nov-19 08:59 38.596280 -112.494054 211 32340ft 485kts
24-Nov-19 09:00 38.478527 -112.578548 211 32336ft 485kts
24-Nov-19 09:01 38.360977 -112.662574 211 32338ft 485kts
24-Nov-19 09:02 38.243308 -112.746373 210 32338ft 485kts
24-Nov-19 09:03 38.125085 -112.830254 210 32336ft 486kts
24-Nov-19 09:04 38.007114 -112.913935 210 32332ft 486kts
24-Nov-19 09:05 37.889053 -112.996923 210 32326ft 483kts
24-Nov-19 09:06 37.771757 -113.080187 213 32321ft 483kts
24-Nov-19 09:07 37.660558 -113.175620 215 32320ft 483kts
24-Nov-19 09:08 37.549472 -113.270229 215 32326ft 483kts
24-Nov-19 09:09 37.437930 -113.365089 215 32338ft 483kts
24-Nov-19 09:10 37.326629 -113.459218 214 31962ft 479kts
24-Nov-19 09:11 37.217003 -113.551451 214 29776ft 467kts
24-Nov-19 09:12 37.110473 -113.640761 214 27762ft 454kts
24-Nov-19 09:13 37.006899 -113.727279 215 25766ft 439kts
24-Nov-19 09:15 36.907935 -113.809690 215 23829ft 413kts
24-Nov-19 09:16 36.815306 -113.886842 215 21986ft 392kts
24-Nov-19 09:17 36.725535 -113.961147 214 20172ft 383kts
24-Nov-19 09:18 36.637630 -114.033559 214 18248ft 373kts
24-Nov-19 09:19 36.559630 -114.114662 234 16354ft 362kts
24-Nov-19 09:20 36.506719 -114.219644 238 14656ft 354kts
24-Nov-19 09:21 36.454579 -114.321531 238 13061ft 345kts
24-Nov-19 09:22 36.405115 -114.417554 238 12319ft 314kts
24-Nov-19 09:23 36.359730 -114.505892 238 11468ft 297kts
24-Nov-19 09:24 36.315457 -114.591659 237 10468ft 293kts
24-Nov-19 09:25 36.247566 -114.634898 192 9800ft 272kts
24-Nov-19 09:26 36.178107 -114.653680 192 9279ft 247kts
24-Nov-19 09:27 36.116350 -114.683976 235 8363ft 241kts
24-Nov-19 09:28 36.085047 -114.754718 242 7454ft 226kts
24-Nov-19 09:29 36.068920 -114.824938 271 6442ft 210kts
24-Nov-19 09:30 36.073375 -114.894557 272 5446ft 192kts
24-Nov-19 09:31 36.073799 -114.957062 270 4948ft 176kts
24-Nov-19 09:31 36.073774 -115.006990 270 4045ft 166kts
24-Nov-19 09:33 36.073717 -115.071723 269 3052ft 160kts
24-Nov-19 09:34 36.073684 -115.126360 269 2225ft 156kts
24-Nov-19 09:34 36.074801 -115.146047 301 2189ft 15kts
24-Nov-19 09:36 36.078693 -115.146270 45 2189ft 6kts
24-Nov-19 09:37 36.079671 -115.146231 353 2189ft 0kts
24-Nov-19 09:37 36.079671 -115.146232 353 2189ft 0kts
24-Nov-19 09:38 36.079671 -115.146232 353 2189ft 0kts
24-Nov-19 09:40 36.079671 -115.146232 353 2189ft 0kts
24-Nov-19 09:40 36.079671 -115.146232 353 2189ft 0kts
24-Nov-19 09:41 36.079671 -115.146232 353 2189ft 0kts
24-Nov-19 09:42 36.079671 -115.146232 353 2189ft 0kts
24-Nov-19 09:43 36.079671 -115.146232 353 2189ft 0kts
24-Nov-19 09:44 36.079671 -115.146232 353 2189ft 0kts
24-Nov-19 09:45 36.079671 -115.146232 353 2189ft 0kts
24-Nov-19 09:46 36.079671 -115.146232 353 2189ft 0kts
24-Nov-19 09:48 36.079671 -115.146232 353 2189ft 0kts

Navigation Log

Ident Type
Flight plan parsing failed, navigation log unavailable